Airports

 

 

Airport Name Latest METAR Visual Conditions
Atlantic City Int. (ACY) KACY 061654Z 00000KT 10SM CLR 22/14 A2998 RMK AO2 SLP153 T02220144 VFR
Baltimore International Airport (BWI) KBWI 061654Z 00000KT 10SM FEW120 SCT250 23/10 A3000 RMK AO2 SLP160 T02330100 VFR
Washington National Airport (DCA) KDCA 061752Z 35008KT 10SM FEW250 24/11 A3001 RMK AO2 SLP161 T02440111 10250 20139 58013 VFR
Dulles International Airport (IAD) KIAD 061752Z 33004KT 10SM FEW250 24/10 A3001 RMK AO2 SLP160 T02440100 10244 20100 58014 VFR
Norfolk International Airport (ORF) KORF 061751Z VRB04KT 10SM CLR 24/09 A3001 RMK AO2 SLP161 T02390094 10239 20144 58012 VFR
Raleigh International Airport (RDU) KRDU 061751Z 27005KT 10SM FEW060 FEW250 26/11 A3004 RMK AO2 SLP171 T02610106 10272 20117 58015 VFR
Richmond International Airport (RIC) KRIC 061654Z VRB06KT 10SM FEW300 24/08 A3004 RMK AO2 SLP174 T02440078 VFR
Roanoke Regional Airport (ROA) KROA 061654Z 24007KT 10SM FEW210 22/08 A3010 RMK AO2 SLP185 T02220078 VFR